San Ygnacio, Texas
Current Conditions -  °F | °C
As of 7:15 AM on Thursday 27 Nov 2014 (Local Time) from KAPY Reporting Station
Clear Clear  
Wind Chill: 40°   Ceiling: Unl
Heat Index: 40°   Visibility: 10mi
Dew Point: 40°   Wind: 0mph
Humidity: 99%   Direction: NA
Pressure: 30.37"   Gusts: NA
Location:  27.04°N, 99.44°W
Report Text: KAPY 271315Z AUTO 00000KT 10SM CLR 04/04 A3037 RMK AO2 T00460045
Loading
Personal Weather Stations






























Interactive Weather Map New forecast layout! Learn more

10-Day Weather Forecast

Advertisements
Track Severe Weather on mobile